Time;durP1;ratioP1;P1;durP2;ratioP2;P2;SDS_P1;SDS_P2;PMS_P1;PMS_P2;Temp;Humidity;BMP_temperature;BMP_pressure;BME280_temperature;BME280_humidity;BME280_pressure;Samples;Min_cycle;Max_cycle;Signal;HPM_P1;HPM_P2
2023/02/03 00:02:04;;;;;;;7.50;4.60;;;4.70;99.90;;;;;;5092091;28;20545;-48
2023/02/03 00:04:30;;;;;;;8.67;3.90;;;5.10;99.90;;;;;;5072980;28;20293;-48
2023/02/03 00:06:57;;;;;;;14.65;5.60;;;5.20;99.90;;;;;;5092163;28;20396;-49
2023/02/03 00:09:25;;;;;;;14.85;5.20;;;5.30;99.90;;;;;;5091831;28;20221;-48
2023/02/03 00:11:53;;;;;;;9.57;4.72;;;5.00;99.90;;;;;;5092156;28;20195;-49
2023/02/03 00:14:20;;;;;;;8.90;4.75;;;5.30;99.90;;;;;;5092134;28;20214;-48
2023/02/03 00:16:46;;;;;;;14.88;5.28;;;5.00;99.90;;;;;;5091912;28;20206;-49
2023/02/03 00:19:13;;;;;;;10.98;4.18;;;5.10;99.90;;;;;;5091621;28;20195;-48
2023/02/03 00:21:39;;;;;;;11.27;4.70;;;5.10;99.90;;;;;;5092059;28;20194;-49
2023/02/03 00:24:06;;;;;;;12.50;4.65;;;5.10;99.90;;;;;;5091788;28;20456;-48
2023/02/03 00:26:34;;;;;;;10.80;4.32;;;5.30;99.90;;;;;;5091974;28;20199;-47
2023/02/03 00:29:01;;;;;;;7.67;3.80;;;5.10;99.90;;;;;;5073439;28;20206;-48
2023/02/03 00:31:28;;;;;;;8.13;4.20;;;5.20;99.90;;;;;;5073832;28;20463;-49
2023/02/03 00:33:55;;;;;;;16.37;4.30;;;5.20;99.90;;;;;;5091910;28;20567;-49
2023/02/03 00:36:22;;;;;;;13.77;4.50;;;5.30;99.90;;;;;;5073695;28;20444;-48
2023/02/03 00:38:49;;;;;;;13.17;4.43;;;5.20;99.90;;;;;;5091418;28;20195;-48
2023/02/03 00:41:16;;;;;;;13.33;4.53;;;5.00;99.90;;;;;;5073797;28;20452;-49
2023/02/03 00:43:44;;;;;;;11.60;4.73;;;5.20;99.90;;;;;;5073512;28;20458;-48
2023/02/03 00:46:11;;;;;;;15.18;5.25;;;5.20;99.90;;;;;;5073728;28;20461;-48
2023/02/03 00:48:37;;;;;;;9.07;3.92;;;5.30;99.90;;;;;;5073251;28;20198;-48
2023/02/03 00:51:04;;;;;;;10.00;4.20;;;5.60;99.90;;;;;;5073706;28;20246;-48
2023/02/03 00:53:31;;;;;;;12.27;4.45;;;5.00;99.90;;;;;;5091851;28;20411;-48
2023/02/03 00:55:58;;;;;;;14.27;4.20;;;5.00;99.90;;;;;;5073529;28;20218;-48
2023/02/03 00:58:24;;;;;;;9.18;4.75;;;5.10;99.90;;;;;;5073166;28;20206;-52
2023/02/03 01:00:54;;;;;;;11.55;3.95;;;4.30;99.90;;;;;;5073486;28;20652;-48
2023/02/03 01:03:20;;;;;;;11.68;4.22;;;5.20;99.90;;;;;;5073281;28;20241;-48
2023/02/03 01:05:47;;;;;;;8.48;4.60;;;4.90;99.90;;;;;;5091478;28;20218;-48
2023/02/03 01:08:14;;;;;;;18.93;4.80;;;4.90;99.90;;;;;;5073124;28;20203;-48
2023/02/03 01:10:40;;;;;;;12.23;4.22;;;4.90;99.90;;;;;;5073728;28;20835;-48
2023/02/03 01:13:07;;;;;;;14.82;5.72;;;5.20;99.90;;;;;;5092790;28;20191;-48
2023/02/03 01:15:33;;;;;;;16.25;5.00;;;4.90;99.90;;;;;;5093390;28;20237;-48
2023/02/03 01:18:01;;;;;;;9.05;3.95;;;5.10;99.90;;;;;;5095372;28;20672;-48
2023/02/03 01:20:28;;;;;;;10.30;4.93;;;5.00;99.90;;;;;;5076998;28;20199;-48
2023/02/03 01:22:55;;;;;;;15.70;4.82;;;4.40;99.90;;;;;;5077285;28;20195;-48
2023/02/03 01:25:21;;;;;;;7.57;3.88;;;5.20;99.90;;;;;;5095402;28;20207;-48
2023/02/03 01:27:48;;;;;;;13.52;4.25;;;4.90;99.90;;;;;;5095428;28;20196;-48
2023/02/03 01:30:15;;;;;;;10.15;4.82;;;5.00;99.90;;;;;;5094962;28;20210;-48
2023/02/03 01:32:41;;;;;;;8.90;4.50;;;4.80;99.90;;;;;;5077005;28;20545;-49
2023/02/03 01:35:09;;;;;;;9.85;4.47;;;4.50;99.90;;;;;;5076988;28;20458;-47
2023/02/03 01:37:36;;;;;;;8.75;4.90;;;4.40;99.90;;;;;;5076801;28;20244;-47
2023/02/03 01:40:03;;;;;;;11.10;4.65;;;4.90;99.90;;;;;;5094718;28;20671;-48
2023/02/03 01:42:33;;;;;;;7.93;4.55;;;5.10;99.90;;;;;;5095137;28;20194;-48
2023/02/03 01:45:00;;;;;;;9.02;4.60;;;4.90;99.90;;;;;;5076216;28;20231;-48
2023/02/03 01:47:31;;;;;;;12.18;5.28;;;5.10;99.90;;;;;;5094796;28;20678;-48
2023/02/03 01:50:13;;;;;;;13.02;5.15;;;5.10;99.90;;;;;;5094371;28;20194;-48
2023/02/03 01:52:42;;;;;;;7.10;4.50;;;5.00;99.90;;;;;;5094596;28;20201;-48
2023/02/03 01:55:13;;;;;;;10.70;5.22;;;5.00;99.90;;;;;;5094563;28;20214;-47
2023/02/03 01:57:44;;;;;;;6.25;4.70;;;5.10;99.90;;;;;;5094656;28;20194;-48
2023/02/03 02:00:12;;;;;;;8.23;5.63;;;5.00;99.90;;;;;;5076042;28;20206;-48
2023/02/03 02:02:44;;;;;;;6.50;4.40;;;5.00;99.90;;;;;;5076219;28;20206;-49
2023/02/03 02:05:18;;;;;;;9.10;5.00;;;5.20;99.90;;;;;;5094474;28;20463;-48
2023/02/03 02:07:47;;;;;;;8.63;5.18;;;4.90;99.90;;;;;;5076444;28;20202;-48
2023/02/03 02:10:14;;;;;;;9.68;4.93;;;5.00;99.90;;;;;;5094784;28;20572;-48
2023/02/03 02:12:42;;;;;;;9.95;5.10;;;5.00;99.90;;;;;;5094539;28;20282;-48
2023/02/03 02:15:09;;;;;;;6.13;4.47;;;4.20;99.90;;;;;;5076515;28;20271;-48
2023/02/03 02:17:54;;;;;;;7.18;4.63;;;4.70;99.90;;;;;;5075948;28;20202;-48
2023/02/03 02:20:34;;;;;;;8.07;5.55;;;4.90;99.90;;;;;;5075612;28;20205;-48
2023/02/03 02:23:27;;;;;;;6.05;5.15;;;4.70;99.90;;;;;;5093966;28;20548;-48
2023/02/03 02:26:13;;;;;;;6.15;4.65;;;4.70;99.90;;;;;;5075691;28;20226;-47
2023/02/03 02:29:00;;;;;;;7.30;5.18;;;4.70;99.90;;;;;;5092933;28;20195;-47
2023/02/03 02:31:56;;;;;;;10.10;6.95;;;4.90;99.90;;;;;;5075732;28;20201;-48
2023/02/03 02:34:34;;;;;;;9.18;5.28;;;4.80;99.90;;;;;;5075679;28;20325;-49
2023/02/03 02:37:07;;;;;;;9.00;5.88;;;4.80;99.90;;;;;;5075846;28;20210;-49
2023/02/03 02:39:42;;;;;;;6.80;4.60;;;5.00;99.90;;;;;;5075339;28;20203;-48
2023/02/03 02:42:15;;;;;;;8.32;5.60;;;4.90;99.90;;;;;;5093796;28;20715;-48
2023/02/03 02:44:49;;;;;;;7.22;5.50;;;4.70;99.90;;;;;;5075491;28;20230;-47
2023/02/03 02:47:19;;;;;;;8.43;5.72;;;4.80;99.90;;;;;;5075883;28;20219;-48
2023/02/03 02:49:54;;;;;;;8.20;5.10;;;5.00;99.90;;;;;;5075167;28;20588;-47
2023/02/03 02:52:23;;;;;;;7.32;5.35;;;4.70;99.90;;;;;;5093656;28;20195;-48
2023/02/03 02:54:54;;;;;;;7.88;5.40;;;4.80;99.90;;;;;;5075299;28;20222;-48
2023/02/03 02:57:26;;;;;;;7.45;4.82;;;5.00;99.90;;;;;;5075427;28;20198;-48
2023/02/03 02:59:54;;;;;;;7.68;5.50;;;4.90;99.90;;;;;;5074894;28;20241;-48
2023/02/03 03:02:22;;;;;;;5.80;5.30;;;5.00;99.90;;;;;;5075452;28;20694;-47
2023/02/03 03:04:51;;;;;;;6.82;5.35;;;4.80;99.90;;;;;;5075330;28;20234;-48
2023/02/03 03:07:21;;;;;;;5.78;4.70;;;4.80;99.90;;;;;;5075262;28;20198;-48
2023/02/03 03:09:51;;;;;;;6.35;4.28;;;4.70;99.90;;;;;;5092926;28;20187;-48
2023/02/03 03:12:22;;;;;;;6.63;4.07;;;4.70;99.90;;;;;;5074800;28;20570;-48
2023/02/03 03:14:54;;;;;;;4.95;4.13;;;4.80;99.90;;;;;;5074738;28;20683;-49
2023/02/03 03:17:27;;;;;;;4.85;4.32;;;4.70;99.90;;;;;;5074720;28;20285;-47
2023/02/03 03:19:57;;;;;;;5.57;4.53;;;4.80;99.90;;;;;;5074276;28;20244;-48
2023/02/03 03:22:28;;;;;;;4.70;4.07;;;4.80;99.90;;;;;;5074808;28;20203;-49
2023/02/03 03:25:00;;;;;;;6.55;4.38;;;4.90;99.90;;;;;;5092903;28;20235;-48
2023/02/03 03:27:33;;;;;;;6.65;4.25;;;4.70;99.90;;;;;;5074569;28;20567;-48
2023/02/03 03:30:03;;;;;;;3.95;3.55;;;4.70;99.90;;;;;;5092654;28;20556;-49
2023/02/03 03:32:32;;;;;;;5.68;3.15;;;4.60;99.90;;;;;;5092608;28;20206;-48
2023/02/03 03:35:00;;;;;;;4.30;3.90;;;4.90;99.90;;;;;;5074377;28;20223;-48
2023/02/03 03:37:34;;;;;;;4.85;3.47;;;4.60;99.90;;;;;;5092722;28;20194;-48
2023/02/03 03:40:06;;;;;;;4.30;3.55;;;4.60;99.90;;;;;;5092025;28;20199;-48
2023/02/03 03:42:37;;;;;;;5.55;4.32;;;4.20;99.90;;;;;;5092502;28;20690;-48
2023/02/03 03:45:11;;;;;;;4.47;3.75;;;4.50;99.90;;;;;;5092163;28;20699;-48
2023/02/03 03:47:46;;;;;;;4.50;3.78;;;4.60;99.90;;;;;;5092546;28;20205;-50
2023/02/03 03:50:18;;;;;;;4.88;3.13;;;4.50;99.90;;;;;;5092282;28;20202;-48
2023/02/03 03:52:46;;;;;;;4.15;3.47;;;5.20;99.90;;;;;;5092397;28;20201;-48
2023/02/03 03:55:16;;;;;;;3.75;3.25;;;4.80;99.90;;;;;;5092267;28;20218;-49
2023/02/03 03:57:48;;;;;;;4.90;4.13;;;5.00;99.90;;;;;;5092256;28;20205;-48
2023/02/03 04:00:19;;;;;;;4.53;4.10;;;4.10;99.90;;;;;;5091925;28;20201;-48
2023/02/03 04:02:52;;;;;;;7.13;3.63;;;4.80;99.90;;;;;;5092199;28;20190;-48
2023/02/03 04:05:20;;;;;;;3.30;2.97;;;4.90;99.90;;;;;;5092180;28;20222;-48
2023/02/03 04:07:47;;;;;;;6.07;4.50;;;4.60;99.90;;;;;;5092079;28;20198;-48
2023/02/03 04:10:21;;;;;;;4.07;3.67;;;4.50;99.90;;;;;;5091807;28;20209;-48
2023/02/03 04:12:48;;;;;;;4.45;4.00;;;4.80;99.90;;;;;;5092102;28;20203;-48
2023/02/03 04:15:15;;;;;;;4.18;3.60;;;4.80;99.90;;;;;;5091740;28;20214;-48
2023/02/03 04:17:42;;;;;;;3.85;3.40;;;4.90;99.90;;;;;;5091890;28;20190;-48
2023/02/03 04:20:11;;;;;;;12.38;8.80;;;4.90;99.90;;;;;;5091521;28;20191;-48
2023/02/03 04:22:38;;;;;;;5.80;4.32;;;4.80;99.90;;;;;;5091931;28;20244;-48
2023/02/03 04:25:05;;;;;;;4.50;3.97;;;5.00;99.90;;;;;;5091867;28;20222;-48
2023/02/03 04:27:32;;;;;;;5.20;3.57;;;4.80;99.90;;;;;;5091809;28;20926;-47
2023/02/03 04:29:59;;;;;;;4.00;3.60;;;4.50;99.90;;;;;;5091634;28;20761;-48
2023/02/03 04:32:25;;;;;;;5.18;4.55;;;5.10;99.90;;;;;;5091847;28;20199;-48
2023/02/03 04:34:52;;;;;;;5.88;4.95;;;5.20;99.90;;;;;;5091657;28;20281;-48
2023/02/03 04:37:21;;;;;;;5.40;4.33;;;5.20;99.90;;;;;;5091822;28;20552;-48
2023/02/03 04:39:50;;;;;;;5.60;5.00;;;5.40;99.90;;;;;;5091905;28;20433;-48
2023/02/03 04:42:16;;;;;;;6.10;5.50;;;5.20;99.90;;;;;;5092497;28;20259;-48
2023/02/03 04:44:43;;;;;;;7.10;5.82;;;5.30;99.90;;;;;;5092674;28;20226;-48
2023/02/03 04:47:10;;;;;;;7.03;6.30;;;4.90;99.90;;;;;;5092066;28;20191;-48
2023/02/03 04:49:36;;;;;;;9.50;6.85;;;5.50;99.90;;;;;;5091702;28;20194;-48
2023/02/03 04:52:03;;;;;;;8.32;7.25;;;5.60;99.90;;;;;;5095554;28;20217;-48
2023/02/03 04:54:31;;;;;;;8.85;7.15;;;5.40;99.90;;;;;;5095670;28;20683;-48
2023/02/03 04:56:58;;;;;;;13.80;8.75;;;5.40;99.90;;;;;;5095679;28;20195;-47
2023/02/03 04:59:25;;;;;;;8.00;6.82;;;5.30;99.90;;;;;;5095273;28;20199;-48
2023/02/03 05:01:51;;;;;;;9.87;8.43;;;4.80;99.90;;;;;;5095528;28;20224;-48
2023/02/03 05:04:18;;;;;;;9.17;7.90;;;5.50;99.90;;;;;;5095288;28;20462;-48
2023/02/03 05:06:45;;;;;;;9.40;7.80;;;5.50;99.90;;;;;;5095604;28;20434;-48
2023/02/03 05:09:11;;;;;;;12.27;8.43;;;5.90;99.90;;;;;;5095033;28;20404;-48
2023/02/03 05:11:39;;;;;;;11.60;9.80;;;5.60;99.90;;;;;;5095374;28;20581;-48
2023/02/03 05:14:06;;;;;;;11.20;9.60;;;5.50;99.90;;;;;;5095157;28;20432;-48
2023/02/03 05:16:33;;;;;;;12.33;10.17;;;5.80;99.90;;;;;;5095092;28;20926;-49
2023/02/03 05:18:59;;;;;;;15.10;10.07;;;5.60;99.90;;;;;;5094706;28;20412;-48
2023/02/03 05:21:26;;;;;;;14.00;10.98;;;5.90;99.90;;;;;;5095353;28;20790;-48
2023/02/03 05:23:53;;;;;;;14.90;11.83;;;5.80;99.90;;;;;;5094938;28;20200;-48
2023/02/03 05:26:19;;;;;;;12.98;11.60;;;6.00;99.90;;;;;;5094993;28;20977;-48
2023/02/03 05:28:47;;;;;;;17.20;13.43;;;5.80;99.90;;;;;;5076418;28;20203;-48
2023/02/03 05:31:14;;;;;;;16.33;12.57;;;6.20;99.90;;;;;;5095023;28;20416;-48
2023/02/03 05:33:40;;;;;;;18.53;13.67;;;5.50;99.90;;;;;;5094927;28;20422;-48
2023/02/03 05:36:08;;;;;;;19.57;14.90;;;6.00;99.90;;;;;;5094742;28;20471;-48
2023/02/03 05:38:35;;;;;;;20.20;15.87;;;6.10;99.90;;;;;;5094568;28;20425;-48
2023/02/03 05:43:47;;;;;;;22.70;16.73;;;6.20;99.90;;;;;;5095237;28;20404;-48
2023/02/03 05:46:13;;;;;;;24.70;19.30;;;6.10;99.90;;;;;;5077246;28;20489;-47
2023/02/03 05:48:40;;;;;;;24.47;18.57;;;6.30;99.90;;;;;;5094399;28;20918;-47
2023/02/03 05:51:07;;;;;;;24.90;17.90;;;6.80;99.90;;;;;;5094815;28;20440;-47
2023/02/03 05:53:33;;;;;;;27.37;20.27;;;6.40;99.90;;;;;;5094507;28;20950;-47
2023/02/03 05:56:00;;;;;;;25.07;17.97;;;6.30;99.90;;;;;;5094371;28;20425;-48
2023/02/03 05:58:27;;;;;;;26.83;20.60;;;6.40;99.90;;;;;;5094022;28;20445;-48
2023/02/03 06:00:55;;;;;;;25.17;19.20;;;6.40;99.90;;;;;;5094340;28;20583;-48
2023/02/03 06:03:21;;;;;;;23.90;17.97;;;6.60;99.90;;;;;;5094723;28;20410;-48
2023/02/03 06:05:48;;;;;;;27.53;19.90;;;6.60;99.90;;;;;;5075840;28;20490;-47
2023/02/03 06:08:15;;;;;;;28.33;21.47;;;6.70;99.90;;;;;;5093917;28;20438;-47
2023/02/03 06:10:42;;;;;;;31.67;21.30;;;6.60;99.90;;;;;;5094278;28;20418;-48
2023/02/03 06:13:10;;;;;;;26.93;21.83;;;6.90;99.90;;;;;;5094436;28;20406;-47
2023/02/03 06:15:37;;;;;;;30.23;20.80;;;6.90;99.90;;;;;;5094245;28;20437;-47
2023/02/03 06:18:06;;;;;;;30.13;20.70;;;6.70;99.90;;;;;;5093919;28;20424;-49
2023/02/03 06:20:33;;;;;;;31.57;21.60;;;6.90;99.90;;;;;;5094236;28;20436;-47
2023/02/03 06:23:00;;;;;;;28.97;22.00;;;6.90;99.90;;;;;;5093786;28;20434;-47
2023/02/03 06:25:27;;;;;;;31.13;23.10;;;6.80;99.90;;;;;;5093706;28;20452;-48
2023/02/03 06:27:53;;;;;;;29.23;23.13;;;6.80;99.90;;;;;;5093917;28;20413;-48
2023/02/03 06:30:22;;;;;;;32.07;21.40;;;7.40;99.90;;;;;;5093512;28;20446;-49
2023/02/03 06:32:49;;;;;;;28.73;21.90;;;7.20;99.90;;;;;;5093980;28;20441;-47
2023/02/03 06:35:17;;;;;;;30.63;21.90;;;6.90;99.90;;;;;;5093685;28;20775;-49
2023/02/03 06:37:44;;;;;;;26.50;20.87;;;6.90;99.90;;;;;;5093771;28;20412;-49
2023/02/03 06:40:12;;;;;;;29.40;20.60;;;7.10;99.90;;;;;;5093158;28;20442;-47
2023/02/03 06:42:38;;;;;;;30.70;21.07;;;7.00;99.90;;;;;;5093468;28;20773;-48
2023/02/03 06:45:07;;;;;;;26.90;19.40;;;7.20;99.90;;;;;;5093300;28;20464;-47
2023/02/03 06:47:34;;;;;;;21.17;18.87;;;7.10;99.90;;;;;;5093656;28;20467;-47
2023/02/03 06:50:01;;;;;;;31.03;21.10;;;7.30;99.90;;;;;;5093109;28;20438;-48
2023/02/03 06:52:29;;;;;;;30.30;20.63;;;7.30;99.90;;;;;;5093440;28;20906;-48
2023/02/03 06:54:56;;;;;;;27.63;20.77;;;7.50;99.90;;;;;;5093228;28;20443;-48
2023/02/03 06:57:22;;;;;;;27.17;19.03;;;7.40;99.90;;;;;;5093692;28;20429;-48
2023/02/03 06:59:49;;;;;;;23.97;20.03;;;7.50;99.90;;;;;;5092927;28;20406;-48
2023/02/03 07:02:15;;;;;;;25.83;18.77;;;7.30;99.90;;;;;;5093539;28;20414;-47
2023/02/03 07:04:43;;;;;;;27.13;19.93;;;7.60;99.90;;;;;;5075149;28;20453;-47
2023/02/03 07:07:10;;;;;;;27.40;19.00;;;7.90;99.90;;;;;;5093626;28;20770;-47
2023/02/03 07:09:38;;;;;;;21.97;18.07;;;7.80;99.90;;;;;;5092812;28;20428;-48
2023/02/03 07:12:05;;;;;;;24.57;18.23;;;7.80;99.90;;;;;;5093092;28;20505;-48
2023/02/03 07:14:34;;;;;;;26.90;19.93;;;7.40;99.90;;;;;;5092668;28;20452;-46
2023/02/03 07:17:00;;;;;;;25.83;18.77;;;7.40;99.90;;;;;;5092576;28;20418;-48
2023/02/03 07:19:27;;;;;;;25.20;19.70;;;7.50;99.90;;;;;;5092265;28;20425;-48
2023/02/03 07:21:54;;;;;;;21.27;17.87;;;7.20;99.90;;;;;;5092407;28;20481;-48
2023/02/03 07:24:20;;;;;;;21.03;17.37;;;7.50;99.90;;;;;;5092734;28;20437;-47
2023/02/03 07:26:48;;;;;;;28.13;19.13;;;7.90;99.90;;;;;;5092570;28;20490;-49
2023/02/03 07:29:15;;;;;;;20.97;17.40;;;7.60;99.90;;;;;;5092309;28;20434;-48
2023/02/03 07:31:42;;;;;;;23.50;19.00;;;7.70;99.90;;;;;;5093012;28;20761;-46
2023/02/03 07:34:09;;;;;;;28.70;17.97;;;7.70;99.90;;;;;;5092711;28;20939;-47
2023/02/03 07:36:36;;;;;;;23.70;17.30;;;7.90;99.90;;;;;;5092953;28;20435;-48
2023/02/03 07:39:02;;;;;;;25.87;17.10;;;7.70;99.90;;;;;;5092435;28;20410;-48
2023/02/03 07:41:29;;;;;;;19.73;16.40;;;7.90;99.90;;;;;;5092248;28;20407;-48
2023/02/03 07:43:57;;;;;;;21.40;17.70;;;7.50;99.90;;;;;;5092125;28;20409;-47
2023/02/03 07:46:24;;;;;;;20.73;17.40;;;8.00;99.90;;;;;;5092690;28;20470;-48
2023/02/03 07:48:50;;;;;;;21.50;15.23;;;7.80;99.90;;;;;;5092491;28;20410;-48
2023/02/03 07:51:17;;;;;;;20.70;15.80;;;7.90;99.90;;;;;;5092898;28;20819;-48
2023/02/03 07:53:44;;;;;;;17.07;15.30;;;8.10;99.90;;;;;;5092177;28;20895;-49
2023/02/03 07:56:11;;;;;;;20.00;13.70;;;7.90;99.90;;;;;;5092095;28;20436;-47
2023/02/03 07:58:39;;;;;;;22.40;14.50;;;7.90;99.90;;;;;;5092368;28;20414;-48
2023/02/03 08:01:12;;;;;;;21.97;15.60;;;7.90;99.90;;;;;;5092282;28;20782;-48
2023/02/03 08:03:38;;;;;;;15.80;13.70;;;8.10;99.90;;;;;;5092107;28;20519;-47
2023/02/03 08:06:06;;;;;;;22.33;13.90;;;8.20;99.90;;;;;;5092262;28;20963;-47
2023/02/03 08:08:32;;;;;;;20.57;13.37;;;8.20;99.90;;;;;;5091841;28;20454;-47
2023/02/03 08:10:59;;;;;;;20.13;13.37;;;7.60;99.90;;;;;;5092482;28;20432;-49
2023/02/03 08:13:26;;;;;;;21.73;13.63;;;8.20;99.90;;;;;;5092642;28;20421;-48
2023/02/03 08:15:52;;;;;;;14.60;11.77;;;8.20;99.90;;;;;;5092127;28;20547;-49
2023/02/03 08:18:21;;;;;;;17.10;13.00;;;8.00;99.90;;;;;;5091555;28;20403;-48
2023/02/03 08:20:47;;;;;;;16.40;11.53;;;7.90;99.90;;;;;;5092082;28;20415;-47
2023/02/03 08:23:14;;;;;;;11.93;10.70;;;7.90;99.90;;;;;;5091840;28;20410;-48
2023/02/03 08:25:41;;;;;;;12.20;10.50;;;8.40;99.90;;;;;;5093315;28;20461;-48
2023/02/03 08:28:08;;;;;;;12.23;11.00;;;7.60;99.90;;;;;;5095891;28;20433;-48
2023/02/03 08:30:35;;;;;;;13.40;11.53;;;8.40;99.90;;;;;;5096535;28;20896;-47
2023/02/03 08:33:02;;;;;;;20.30;11.40;;;8.50;99.90;;;;;;5096067;28;20943;-48
2023/02/03 08:35:30;;;;;;;12.37;10.50;;;8.30;99.90;;;;;;5096588;28;20799;-47
2023/02/03 08:37:56;;;;;;;14.10;10.57;;;8.40;99.90;;;;;;5096295;28;20395;-47
2023/02/03 08:40:23;;;;;;;12.50;9.10;;;7.60;99.90;;;;;;5096639;28;20437;-48
2023/02/03 08:42:50;;;;;;;13.07;9.70;;;8.20;99.90;;;;;;5095844;28;20404;-48
2023/02/03 08:45:17;;;;;;;14.07;9.90;;;8.50;99.90;;;;;;5095465;28;20828;-47
2023/02/03 08:47:43;;;;;;;13.90;9.67;;;8.30;99.90;;;;;;5095871;28;20800;-48
2023/02/03 08:50:10;;;;;;;11.87;9.57;;;8.50;99.90;;;;;;5095358;28;20837;-48
2023/02/03 08:52:38;;;;;;;10.87;9.47;;;8.40;99.90;;;;;;5095713;28;20761;-48
2023/02/03 08:55:06;;;;;;;10.33;8.93;;;8.50;99.90;;;;;;5095299;28;20880;-47
2023/02/03 08:57:34;;;;;;;14.23;10.27;;;8.30;99.90;;;;;;5095968;28;20411;-47
2023/02/03 09:00:00;;;;;;;9.80;8.57;;;8.40;99.90;;;;;;5096068;28;20436;-48
2023/02/03 09:02:27;;;;;;;13.30;8.73;;;8.30;99.90;;;;;;5095905;28;20429;-47
2023/02/03 09:04:54;;;;;;;11.30;9.63;;;8.40;99.90;;;;;;5096284;28;20455;-48
2023/02/03 09:07:21;;;;;;;9.70;8.40;;;8.50;99.90;;;;;;5095780;28;21001;-48
2023/02/03 09:09:49;;;;;;;9.43;8.47;;;8.30;99.90;;;;;;5095666;28;20424;-47
2023/02/03 09:12:16;;;;;;;10.03;8.00;;;8.40;99.90;;;;;;5095704;28;20444;-47
2023/02/03 09:14:43;;;;;;;8.83;7.90;;;8.50;99.90;;;;;;5095515;28;20859;-48
2023/02/03 09:17:10;;;;;;;9.77;7.70;;;8.40;99.90;;;;;;5076847;28;20441;-48
2023/02/03 09:19:36;;;;;;;8.30;7.10;;;8.60;99.90;;;;;;5095162;28;20432;-48
2023/02/03 09:22:03;;;;;;;10.10;7.73;;;8.60;99.90;;;;;;5077221;28;20427;-47
2023/02/03 09:24:30;;;;;;;9.00;7.43;;;8.60;99.90;;;;;;5095043;28;20452;-48
2023/02/03 09:26:59;;;;;;;12.07;9.60;;;8.50;99.90;;;;;;5094612;28;20458;-48
2023/02/03 09:29:26;;;;;;;9.77;7.17;;;8.50;99.90;;;;;;5094252;28;20407;-48
2023/02/03 09:31:53;;;;;;;8.83;7.23;;;8.60;99.90;;;;;;5094958;28;20418;-48
2023/02/03 09:34:20;;;;;;;7.70;6.03;;;8.80;99.90;;;;;;5095036;28;20951;-47
2023/02/03 09:36:46;;;;;;;7.73;7.00;;;8.80;99.90;;;;;;5094482;28;20490;-48
2023/02/03 09:39:14;;;;;;;9.20;6.43;;;8.50;99.90;;;;;;5094594;28;20425;-47
2023/02/03 09:42:06;;;;;;;8.50;6.40;;;8.40;99.90;;;;;;5095080;28;20795;-48
2023/02/03 09:44:41;;;;;;;9.63;6.50;;;8.70;99.90;;;;;;5083110;28;20515;-48
2023/02/03 09:47:12;;;;;;;7.17;5.93;;;8.20;99.90;;;;;;5094536;28;20453;-47
2023/02/03 09:49:42;;;;;;;7.97;7.17;;;8.60;99.90;;;;;;5094050;28;20437;-48
2023/02/03 09:52:13;;;;;;;8.63;6.80;;;8.80;99.90;;;;;;5094369;28;20791;-48
2023/02/03 09:54:44;;;;;;;6.50;5.70;;;9.00;99.90;;;;;;5094537;28;20423;-47
2023/02/03 09:57:17;;;;;;;8.10;6.03;;;8.80;99.90;;;;;;5094578;28;20408;-47
2023/02/03 09:59:44;;;;;;;7.40;5.90;;;8.90;99.90;;;;;;5076039;28;20442;-47
2023/02/03 10:02:25;;;;;;;5.97;5.40;;;8.80;99.90;;;;;;5094130;28;20429;-48
2023/02/03 10:04:57;;;;;;;5.00;4.50;;;8.80;99.90;;;;;;5094457;28;20983;-47
2023/02/03 10:07:33;;;;;;;6.37;5.57;;;8.80;99.90;;;;;;5094932;28;20502;-48
2023/02/03 10:10:08;;;;;;;7.87;6.27;;;9.00;99.90;;;;;;5094309;28;20519;-47
2023/02/03 10:12:58;;;;;;;6.47;5.70;;;9.00;99.90;;;;;;5094702;28;20419;-47
2023/02/03 10:15:59;;;;;;;6.00;4.87;;;8.80;99.90;;;;;;5094175;28;20812;-47
2023/02/03 10:18:31;;;;;;;7.77;5.50;;;9.10;99.90;;;;;;5073975;28;20957;-47
2023/02/03 10:21:02;;;;;;;7.10;5.40;;;8.70;99.90;;;;;;5094095;28;20421;-48
2023/02/03 10:23:31;;;;;;;11.00;4.90;;;9.00;99.90;;;;;;5093794;28;20447;-47
2023/02/03 10:26:01;;;;;;;6.47;4.57;;;9.00;99.90;;;;;;5093851;28;20485;-47
2023/02/03 10:28:31;;;;;;;12.37;4.67;;;9.10;99.90;;;;;;5093497;28;20429;-48
2023/02/03 10:30:59;;;;;;;6.37;4.40;;;9.10;99.90;;;;;;5075919;28;20951;-47
2023/02/03 10:33:27;;;;;;;6.60;5.17;;;8.90;99.90;;;;;;5076092;28;20411;-48
2023/02/03 10:35:57;;;;;;;4.80;3.47;;;9.00;99.90;;;;;;5094958;28;20464;-48
2023/02/03 10:38:38;;;;;;;5.80;2.80;;;9.10;99.90;;;;;;5093985;28;20433;-47
2023/02/03 10:41:05;;;;;;;6.47;3.50;;;8.90;99.90;;;;;;5094016;28;20456;-47
2023/02/03 10:43:50;;;;;;;8.13;2.03;;;9.20;99.90;;;;;;5093420;28;20407;-48
2023/02/03 10:46:19;;;;;;;8.27;1.57;;;9.00;99.90;;;;;;5093369;28;20624;-48
2023/02/03 10:48:45;;;;;;;8.60;2.70;;;8.80;99.90;;;;;;5092564;28;20424;-47
2023/02/03 10:51:20;;;;;;;13.43;2.83;;;8.90;99.90;;;;;;5093523;28;20437;-46
2023/02/03 10:53:47;;;;;;;6.10;2.00;;;8.40;99.90;;;;;;5094416;28;20889;-46
2023/02/03 10:56:17;;;;;;;5.00;1.73;;;7.80;99.90;;;;;;5093746;28;20429;-47
2023/02/03 10:58:50;;;;;;;4.40;1.47;;;8.50;99.90;;;;;;5093775;28;20429;-48
2023/02/03 11:01:20;;;;;;;5.43;2.37;;;8.50;99.90;;;;;;5094461;28;20856;-48
2023/02/03 11:03:57;;;;;;;6.80;1.97;;;8.50;99.90;;;;;;5093400;28;20414;-49
2023/02/03 11:06:23;;;;;;;12.83;2.60;;;8.70;99.90;;;;;;5093218;28;20526;-49
2023/02/03 11:08:51;;;;;;;16.00;2.90;;;8.50;99.90;;;;;;5092801;28;20430;-50
2023/02/03 11:11:23;;;;;;;8.03;2.77;;;8.70;99.90;;;;;;5093044;28;20416;-47
2023/02/03 11:13:55;;;;;;;8.80;2.40;;;8.60;99.90;;;;;;5093193;28;20532;-47
2023/02/03 11:16:24;;;;;;;6.33;2.10;;;8.60;99.90;;;;;;5075144;28;20540;-47
2023/02/03 11:18:59;;;;;;;8.73;3.13;;;8.70;99.90;;;;;;5092646;28;20422;-48
2023/02/03 11:21:29;;;;;;;7.87;2.63;;;8.80;99.90;;;;;;5092907;28;20564;-47
2023/02/03 11:24:06;;;;;;;9.90;2.63;;;8.90;99.90;;;;;;5092943;28;20429;-48
2023/02/03 11:26:36;;;;;;;13.47;3.27;;;8.90;99.90;;;;;;5092799;28;20470;-49
2023/02/03 11:29:06;;;;;;;5.87;2.23;;;9.20;99.90;;;;;;5092651;28;20407;-48
2023/02/03 11:31:35;;;;;;;12.13;3.43;;;9.40;99.90;;;;;;5092829;28;20437;-48
2023/02/03 11:34:05;;;;;;;13.73;2.57;;;8.60;99.90;;;;;;5092631;28;20468;-48
2023/02/03 11:36:35;;;;;;;9.40;2.80;;;9.00;99.90;;;;;;5093238;28;20429;-48
2023/02/03 11:39:18;;;;;;;10.83;3.10;;;9.10;99.90;;;;;;5092480;28;20430;-48
2023/02/03 11:41:46;;;;;;;14.80;4.00;;;9.30;99.90;;;;;;5092272;28;20436;-47
2023/02/03 11:44:18;;;;;;;12.50;3.53;;;9.10;99.90;;;;;;5116033;22;20534;-48
2023/02/03 11:46:47;;;;;;;14.27;3.90;;;9.50;99.90;;;;;;5051443;28;21040;-48
2023/02/03 11:49:39;;;;;;;14.83;4.00;;;9.30;99.90;;;;;;5051646;28;20435;-46
2023/02/03 11:52:21;;;;;;;13.70;3.10;;;9.30;99.90;;;;;;5052265;28;20496;-48
2023/02/03 11:54:56;;;;;;;21.87;4.73;;;9.70;99.90;;;;;;5051772;28;20500;-49
2023/02/03 11:57:36;;;;;;;13.60;4.20;;;9.50;99.90;;;;;;5052254;28;20919;-46
2023/02/03 12:00:15;;;;;;;13.17;4.40;;;9.00;99.90;;;;;;5051573;28;20454;-48
2023/02/03 12:03:18;;;;;;;18.93;4.40;;;9.10;99.90;;;;;;5051990;28;20466;-48
2023/02/03 12:05:58;;;;;;;15.47;4.87;;;9.50;99.90;;;;;;5051869;28;20453;-48
2023/02/03 12:08:39;;;;;;;20.70;5.67;;;9.20;99.90;;;;;;5051680;28;20456;-49
2023/02/03 12:11:15;;;;;;;19.50;4.23;;;9.40;99.90;;;;;;5051546;28;20430;-47
2023/02/03 12:14:10;;;;;;;18.13;5.30;;;9.10;99.90;;;;;;5051412;28;20413;-48
2023/02/03 12:17:20;;;;;;;20.40;5.37;;;9.20;99.90;;;;;;5051098;28;20402;-48
2023/02/03 12:20:01;;;;;;;18.47;5.10;;;9.30;99.90;;;;;;5008970;28;20444;-48
2023/02/03 12:22:35;;;;;;;16.60;4.53;;;8.90;99.90;;;;;;5051103;28;20702;-46
2023/02/03 12:25:15;;;;;;;22.73;3.90;;;9.30;99.90;;;;;;5051284;28;21000;-47
2023/02/03 12:27:53;;;;;;;17.60;5.40;;;9.40;99.90;;;;;;5050904;28;20469;-50
2023/02/03 12:30:25;;;;;;;19.23;6.47;;;9.50;99.90;;;;;;5050862;28;20393;-48
2023/02/03 12:32:58;;;;;;;16.73;5.60;;;9.20;99.90;;;;;;5051063;28;20443;-47
2023/02/03 12:35:30;;;;;;;16.40;3.97;;;9.00;99.90;;;;;;5050866;28;21002;-48
2023/02/03 12:38:01;;;;;;;25.00;5.60;;;9.50;99.90;;;;;;5050818;28;20406;-48
2023/02/03 12:40:35;;;;;;;16.80;5.90;;;9.50;99.90;;;;;;5050774;28;20777;-46
2023/02/03 12:43:17;;;;;;;21.80;5.53;;;9.70;99.90;;;;;;5033094;28;20461;-48
2023/02/03 12:45:51;;;;;;;26.10;5.80;;;9.90;99.90;;;;;;5050849;28;20462;-47
2023/02/03 12:48:23;;;;;;;24.23;6.33;;;10.00;99.90;;;;;;5032747;28;20482;-48
2023/02/03 12:50:53;;;;;;;24.00;5.60;;;9.50;99.90;;;;;;5050842;28;20430;-48
2023/02/03 12:53:26;;;;;;;39.03;6.97;;;9.70;99.90;;;;;;5050645;28;20405;-49
2023/02/03 12:56:00;;;;;;;28.77;4.90;;;10.10;99.90;;;;;;5050724;28;20906;-46
2023/02/03 12:58:29;;;;;;;7.33;2.20;;;9.80;99.90;;;;;;5050429;28;20454;-48
2023/02/03 13:01:00;;;;;;;9.60;1.90;;;8.90;99.90;;;;;;5051014;28;20420;-48
2023/02/03 13:03:33;;;;;;;6.83;2.63;;;8.20;99.90;;;;;;5032954;28;20478;-47
2023/02/03 13:06:08;;;;;;;7.50;2.60;;;7.40;99.90;;;;;;5051642;28;20440;-50